Aviation Digital Data Service (ADDS)

Output produced by METARs form (0949 UTC 26 January 2020)
found at http://www.aviationweather.gov/metar/data/
 
Forecast for: RJNK (KOMATSU (CIV/JAS, JP)
Text: TAF RJNK 260510Z 2606/2712 05012KT 9999 FEW030
Forecast period: 0600 UTC 26 January 2020 to 1200 UTC 27 January 2020
Forecast type: FROM: standard forecast or significant change
Winds: from the NE (50 degrees) at 14 MPH (12 knots; 6.2 m/s)
Visibility: 6 or more miles 10+ km)
Ceiling: at least 12,000 feet AGL
Clouds: few clouds at 3000 feet AGL
Weather: no significant weather forecast for this period